Loyal, WI (54446)

7:10 AM CDT on July 23, 2017 (GMT -0500)
Willard | | Change Station
Active Advisory: Special Statement

Elev 1158 ft 44.76 °N, 90.68 °W | Updated 3 seconds ago

Rain
Rain
64.0 °F
Feels Like 64.0 °F
N
0.0
Wind Variable Wind from North
Gusts 0.0 mph

Today
High -- | Low -- °F
--% Chance of Precip.
Yesterday
High -- | Low -- °F
Precip. -- in
Pressure 29.81 in
Visibility 10.0 miles
Clouds Overcast 8500 ft
Dew Point 62 °F
Humidity 94%
Rainfall 0.00 in
Snow Depth Not available.
5:38 AM 8:37 PM
New Moon, 0% visible
METAR KMFI 231154Z AUTO 33007KT 10SM OVC085 18/16 A2982 RMK AO2 RAB26E36 SLP092 P0000 60000 T01830156 10200 20167 53006 TSNO
Pressure 29.81 in
Visibility 10.0 miles
Clouds Overcast 8500 ft
Dew Point 62 °F
Humidity 94%
Rainfall 0.00 in
Snow Depth Not available.
5:38 AM 8:37 PM
New Moon, 0% visible
METAR KMFI 231154Z AUTO 33007KT 10SM OVC085 18/16 A2982 RMK AO2 RAB26E36 SLP092 P0000 60000 T01830156 10200 20167 53006 TSNO

Get Your Daily Forecast Email!

Thanks for signing up!

Be on the lookout for a verification email in your inbox.

You'll start receiving severe weather alerts in your inbox..

×

10-Day Weather Forecast

Almanac

Astronomy

Jul. 23, 2017 Rise Set
Actual Time
Civil Twilight
Nautical Twilight
Astronomical Twilight
Moon
Length of Visible Light
Length of Day
Tomorrow will be .
, % of the Moon is Illuminated

Today's Extremes

State Highs State Lows

Community

WunderPhotos

Category 6

Welcome to Category 6. This is the collective home for Weather Underground's featured writeups by Dr. Jeff Masters (right), Bob Henson (left), Chris Burt, and other regular contributors.

Nearby

Air Quality

  Air Quality AQ Index Pollutant
Not available.

Snow Depth

Station Depth Elevation

Earthquake Activity

City Distance Mag. Time & Date
Minimum magnitude displayed is 2.5.

Coastal Water Temperatures

Place Temperature

Stations

Nearby Weather Stations

Station Location Temp. Windchill Dew Point Humidity Wind Precip. Elev Updated Type
                   

Watches & Warnings

Special Statement
Issued: 2:11 AM CDT Jul. 23, 2017 – National Weather Service

... Areas of dense fog this morning...

Through 9 am, areas of dense fog will be found across parts of
western Wisconsin and southeast Minnesota. This fog will reduce
visibilities to less than a quarter mile in some locations.

If traveling this morning, be alert to the potential for quick
changes in visibility along your Route.


Boyne

211 am CDT sun Jul 23 2017

... Areas of dense fog this morning...

Through 9 am, areas of dense fog will be found across parts of
western Wisconsin and southeast Minnesota. This fog will reduce
visibilities to less than a quarter mile in some locations.

If traveling this morning, be alert to the potential for quick
changes in visibility along your Route.


Boyne